createdAt,value
2019-03-23T00:00:09.112Z,67.50
2019-03-23T00:02:38.767Z,67.90
2019-03-23T00:05:08.707Z,68.10
2019-03-23T00:07:38.446Z,68.50
2019-03-23T00:10:08.325Z,68.50
2019-03-23T00:12:38.076Z,68.30
2019-03-23T00:15:08.709Z,69.00
2019-03-23T00:17:38.291Z,68.10
2019-03-23T00:20:08.212Z,68.00
2019-03-23T00:22:37.579Z,67.70
2019-03-23T00:25:07.647Z,67.50
2019-03-23T00:27:37.315Z,67.40
2019-03-23T00:30:07.615Z,67.50
2019-03-23T00:32:36.983Z,67.50
2019-03-23T00:35:06.978Z,67.70
2019-03-23T00:37:36.382Z,68.10
2019-03-23T00:40:06.976Z,68.80
2019-03-23T00:42:36.647Z,69.30
2019-03-23T00:45:06.620Z,69.70
2019-03-23T00:47:35.951Z,70.00
2019-03-23T00:50:06.086Z,70.90
2019-03-23T00:52:35.528Z,70.10
2019-03-23T00:55:05.502Z,69.70
2019-03-23T00:57:35.124Z,70.00
2019-03-23T01:00:05.595Z,69.70
2019-03-23T01:02:34.985Z,69.60
2019-03-23T01:05:05.615Z,68.50
2019-03-23T01:07:35.039Z,68.70
2019-03-23T01:10:05.876Z,68.50
2019-03-23T01:12:35.457Z,68.10
2019-03-23T01:15:06.086Z,68.10
2019-03-23T01:17:35.419Z,67.60
2019-03-23T01:20:06.040Z,67.50
2019-03-23T01:22:35.406Z,67.20
2019-03-23T01:25:05.262Z,66.80
2019-03-23T01:27:34.652Z,66.50
2019-03-23T01:30:05.006Z,65.20
2019-03-23T01:32:34.594Z,65.40
2019-03-23T01:35:04.505Z,65.30
2019-03-23T01:37:33.803Z,65.60
2019-03-23T01:40:03.167Z,67.20
2019-03-23T01:42:33.067Z,67.30
2019-03-23T01:45:02.450Z,68.10
2019-03-23T01:47:32.368Z,68.80
2019-03-23T01:50:02.041Z,69.00
2019-03-23T01:52:31.497Z,69.30
2019-03-23T01:55:00.877Z,68.50
2019-03-23T01:57:30.201Z,68.10
2019-03-23T01:59:59.531Z,67.90
2019-03-23T02:02:28.857Z,67.60
2019-03-23T02:04:58.812Z,67.40
2019-03-23T02:07:28.397Z,67.30
2019-03-23T02:09:58.331Z,67.10
2019-03-23T02:12:27.955Z,66.90
2019-03-23T02:14:57.261Z,66.90
2019-03-23T02:17:27.612Z,66.50
2019-03-23T02:19:56.912Z,66.40
2019-03-23T02:22:26.249Z,66.60
2019-03-23T02:24:55.553Z,66.30
2019-03-23T02:27:25.460Z,66.50
2019-03-23T02:29:54.756Z,67.30
2019-03-23T02:32:24.062Z,66.40
2019-03-23T02:34:53.673Z,66.30
2019-03-23T02:37:27.989Z,66.30
2019-03-23T02:39:54.539Z,66.10
2019-03-23T02:42:24.401Z,66.20
2019-03-23T02:44:53.797Z,66.20
2019-03-23T02:47:23.758Z,66.00
2019-03-23T02:49:53.569Z,66.00
2019-03-23T02:52:23.268Z,65.90
2019-03-23T02:54:52.960Z,65.90
2019-03-23T02:57:22.345Z,65.90
2019-03-23T02:59:51.931Z,66.00
2019-03-23T03:02:21.568Z,66.00
2019-03-23T03:04:51.469Z,65.60
2019-03-23T03:07:21.124Z,65.70
2019-03-23T03:09:50.490Z,65.30
2019-03-23T03:12:19.774Z,65.20
2019-03-23T03:14:49.101Z,65.30
2019-03-23T03:17:18.844Z,65.50
2019-03-23T03:19:48.174Z,65.70
2019-03-23T03:22:17.605Z,65.80
2019-03-23T03:24:47.455Z,65.70
2019-03-23T03:27:17.065Z,65.20
2019-03-23T03:29:46.628Z,65.10
2019-03-23T03:32:16.265Z,65.40
2019-03-23T03:34:46.010Z,65.70
2019-03-23T03:37:15.412Z,65.60
2019-03-23T03:39:45.096Z,65.50
2019-03-23T03:42:14.671Z,65.60
2019-03-23T03:44:44.297Z,65.80
2019-03-23T03:47:13.621Z,66.00
2019-03-23T03:49:43.458Z,65.90
2019-03-23T03:52:12.755Z,66.30
2019-03-23T03:54:42.053Z,66.30
2019-03-23T03:57:12.012Z,66.20
2019-03-23T03:59:41.974Z,66.20
2019-03-23T04:02:11.352Z,66.60
2019-03-23T04:04:40.952Z,66.60
2019-03-23T04:07:10.327Z,66.60
2019-03-23T04:09:40.473Z,66.80
2019-03-23T04:12:09.995Z,67.00
2019-03-23T04:14:39.355Z,67.00
2019-03-23T04:17:09.010Z,67.30
2019-03-23T04:19:38.916Z,67.30
2019-03-23T04:22:08.621Z,67.30
2019-03-23T04:24:38.251Z,67.30
2019-03-23T04:27:07.566Z,67.40
2019-03-23T04:29:36.934Z,67.20
2019-03-23T04:32:06.236Z,66.80
2019-03-23T04:34:35.822Z,66.70
2019-03-23T04:37:05.297Z,66.40
2019-03-23T04:39:34.933Z,66.30
2019-03-23T04:42:04.428Z,66.10
2019-03-23T04:44:34.025Z,66.00
2019-03-23T04:47:03.396Z,66.00
2019-03-23T04:49:32.698Z,66.10
2019-03-23T04:52:02.021Z,65.70
2019-03-23T04:54:31.725Z,65.60
2019-03-23T04:57:01.022Z,65.60
2019-03-23T04:59:30.689Z,65.80
2019-03-23T05:01:59.994Z,65.50
2019-03-23T05:04:29.796Z,65.50
2019-03-23T05:06:59.606Z,65.50
2019-03-23T05:09:28.943Z,65.70
2019-03-23T05:11:58.315Z,65.90
2019-03-23T05:14:28.192Z,65.60
2019-03-23T05:16:58.105Z,65.50
2019-03-23T05:19:27.740Z,65.50
2019-03-23T05:21:57.787Z,65.10
2019-03-23T05:24:27.215Z,64.60
2019-03-23T05:26:56.529Z,64.30
2019-03-23T05:29:25.895Z,64.10
2019-03-23T05:31:55.784Z,63.60
2019-03-23T05:34:25.701Z,63.70
2019-03-23T05:36:54.995Z,63.70
2019-03-23T05:39:24.824Z,63.60
2019-03-23T05:41:54.207Z,63.60
2019-03-23T05:44:24.122Z,63.90
2019-03-23T05:46:54.502Z,64.40
2019-03-23T05:49:24.258Z,64.90
2019-03-23T05:51:53.546Z,65.20
2019-03-23T05:54:23.119Z,65.20
2019-03-23T05:56:52.494Z,65.50
2019-03-23T05:59:22.011Z,65.30
2019-03-23T06:01:51.682Z,65.20
2019-03-23T06:04:21.087Z,65.10
2019-03-23T06:06:50.393Z,65.70
2019-03-23T06:09:19.724Z,66.10
2019-03-23T06:11:49.027Z,67.10
2019-03-23T06:14:18.915Z,68.80
2019-03-23T06:16:48.208Z,69.80
2019-03-23T06:19:17.823Z,71.20
2019-03-23T06:21:47.131Z,71.90
2019-03-23T06:24:16.440Z,72.30
2019-03-23T06:26:45.773Z,73.00
2019-03-23T06:29:15.171Z,73.40
2019-03-23T06:31:44.466Z,74.10
2019-03-23T06:34:13.796Z,74.50
2019-03-23T06:36:43.520Z,74.90
2019-03-23T06:39:12.831Z,76.20
2019-03-23T06:41:42.131Z,75.00
2019-03-23T06:44:11.749Z,74.70
2019-03-23T06:46:41.347Z,75.70
2019-03-23T06:49:10.963Z,76.60
2019-03-23T06:51:40.677Z,76.10
2019-03-23T06:54:09.990Z,75.90
2019-03-23T06:56:39.328Z,75.40
2019-03-23T06:59:08.967Z,75.70
2019-03-23T07:01:38.348Z,76.50
2019-03-23T07:04:07.737Z,76.70
2019-03-23T07:06:37.079Z,76.60
2019-03-23T07:09:15.770Z,76.90
2019-03-23T07:11:38.690Z,77.50
2019-03-23T07:14:07.988Z,77.90
2019-03-23T07:16:37.322Z,77.90
2019-03-23T07:19:06.625Z,78.50
2019-03-23T07:21:36.003Z,79.30
2019-03-23T07:24:05.421Z,79.70
2019-03-23T07:26:34.888Z,79.90
2019-03-23T07:29:04.620Z,80.30
2019-03-23T07:31:34.284Z,80.50
2019-03-23T07:34:06.075Z,81.30
2019-03-23T07:36:34.855Z,81.20
2019-03-23T07:39:05.047Z,81.40
2019-03-23T07:41:34.377Z,81.10
2019-03-23T07:44:03.788Z,80.70
2019-03-23T07:46:33.172Z,80.50
2019-03-23T07:49:02.475Z,80.20
2019-03-23T07:51:31.801Z,80.00
2019-03-23T07:54:02.758Z,80.10
2019-03-23T07:56:32.249Z,80.50
2019-03-23T07:59:01.888Z,80.40
2019-03-23T08:01:31.186Z,79.80
2019-03-23T08:04:00.798Z,81.10
2019-03-23T08:06:30.349Z,81.70
2019-03-23T08:09:00.035Z,82.10
2019-03-23T08:11:29.910Z,82.80
2019-03-23T08:13:59.518Z,83.00
2019-03-23T08:16:28.814Z,83.00
2019-03-23T08:18:58.119Z,82.40
2019-03-23T08:21:27.455Z,81.90
2019-03-23T08:23:57.128Z,81.60
2019-03-23T08:26:26.816Z,81.80
2019-03-23T08:28:56.122Z,82.10
2019-03-23T08:31:27.196Z,82.20
2019-03-23T08:33:56.722Z,81.90
2019-03-23T08:36:26.306Z,80.90
2019-03-23T08:38:55.648Z,80.00
2019-03-23T08:41:24.995Z,80.10
2019-03-23T08:43:54.290Z,80.10
2019-03-23T08:46:23.855Z,79.80
2019-03-23T08:48:53.169Z,79.50
2019-03-23T08:51:22.475Z,78.90
2019-03-23T08:53:51.803Z,78.40
2019-03-23T08:56:21.144Z,78.60
2019-03-23T08:58:48.618Z,78.60
2019-03-23T09:01:17.969Z,78.40
2019-03-23T09:03:52.343Z,78.00
2019-03-23T09:06:19.153Z,78.20
2019-03-23T09:08:48.744Z,77.80
2019-03-23T09:11:20.663Z,77.00
2019-03-23T09:13:49.090Z,77.00
2019-03-23T09:16:19.368Z,76.80
2019-03-23T09:18:48.915Z,77.00
2019-03-23T09:21:18.473Z,77.70
2019-03-23T09:23:48.070Z,77.80
2019-03-23T09:26:17.389Z,77.00
2019-03-23T09:28:47.047Z,77.10
2019-03-23T09:31:16.364Z,77.10
2019-03-23T09:33:46.366Z,76.80
2019-03-23T09:36:15.864Z,75.90
2019-03-23T09:38:45.233Z,75.70
2019-03-23T09:41:14.571Z,76.00
2019-03-23T09:43:44.904Z,76.90
2019-03-23T09:46:14.542Z,76.40
2019-03-23T09:48:43.852Z,75.90
2019-03-23T09:51:13.513Z,75.80
2019-03-23T09:53:43.552Z,75.10
2019-03-23T09:56:13.274Z,75.20
2019-03-23T09:58:42.911Z,74.80
2019-03-23T10:01:12.235Z,74.90
2019-03-23T10:03:42.955Z,75.10
2019-03-23T10:06:12.834Z,75.40
2019-03-23T10:08:42.136Z,75.50
2019-03-23T10:11:11.436Z,75.60
2019-03-23T10:13:41.008Z,75.90
2019-03-23T10:16:10.598Z,76.20
2019-03-23T10:18:40.156Z,75.60
2019-03-23T10:21:09.828Z,75.60
2019-03-23T10:23:39.185Z,75.70
2019-03-23T10:26:08.839Z,75.30
2019-03-23T10:28:38.220Z,75.40
2019-03-23T10:31:07.590Z,74.90
2019-03-23T10:33:37.645Z,74.60
2019-03-23T10:36:06.991Z,74.70
2019-03-23T10:38:36.317Z,74.40
2019-03-23T10:41:05.912Z,74.50
2019-03-23T10:43:35.331Z,74.50
2019-03-23T10:46:05.058Z,74.50
2019-03-23T10:48:34.694Z,75.30
2019-03-23T10:51:04.083Z,75.30
2019-03-23T10:53:34.181Z,75.40
2019-03-23T10:56:03.771Z,75.00
2019-03-23T10:58:33.608Z,75.20
2019-03-23T11:01:03.190Z,75.30
2019-03-23T11:03:33.038Z,74.80
2019-03-23T11:06:02.519Z,74.70
2019-03-23T11:08:32.707Z,74.80
2019-03-23T11:11:02.904Z,74.70
2019-03-23T11:13:32.806Z,73.70
2019-03-23T11:16:02.789Z,73.30
2019-03-23T11:18:32.921Z,73.60
2019-03-23T11:21:02.484Z,74.00
2019-03-23T11:23:32.383Z,73.80
2019-03-23T11:26:01.742Z,74.10
2019-03-23T11:28:31.687Z,74.10
2019-03-23T11:31:01.367Z,74.70
2019-03-23T11:33:30.689Z,73.50
2019-03-23T11:36:00.344Z,72.40
2019-03-23T11:38:29.936Z,72.10
2019-03-23T11:41:00.132Z,72.20
2019-03-23T11:43:29.938Z,72.10
2019-03-23T11:45:59.643Z,72.40
2019-03-23T11:48:28.958Z,71.60
2019-03-23T11:50:58.538Z,71.90
2019-03-23T11:53:27.848Z,71.50
2019-03-23T11:55:57.417Z,72.30
2019-03-23T11:58:26.748Z,72.00
2019-03-23T12:00:56.075Z,72.40
2019-03-23T12:03:25.377Z,72.00
2019-03-23T12:05:55.285Z,71.80
2019-03-23T12:08:24.612Z,71.90
2019-03-23T12:11:02.509Z,71.90
2019-03-23T12:13:25.820Z,72.30
2019-03-23T12:15:55.429Z,72.50
2019-03-23T12:18:25.101Z,72.60
2019-03-23T12:20:55.240Z,72.30
2019-03-23T12:23:24.564Z,72.40
2019-03-23T12:25:54.160Z,72.00
2019-03-23T12:28:23.490Z,71.60
2019-03-23T12:30:53.047Z,71.00
2019-03-23T12:33:22.376Z,71.20
2019-03-23T12:35:52.018Z,71.60
2019-03-23T12:38:22.000Z,71.20
2019-03-23T12:40:51.570Z,70.70
2019-03-23T12:43:21.274Z,70.60
2019-03-23T12:45:50.906Z,70.10
2019-03-23T12:48:20.544Z,70.10
2019-03-23T12:50:50.500Z,70.00
2019-03-23T12:53:20.511Z,70.40
2019-03-23T12:55:50.170Z,69.40
2019-03-23T12:58:19.503Z,70.10
2019-03-23T13:00:48.924Z,70.40
2019-03-23T13:03:18.692Z,69.90
2019-03-23T13:05:48.034Z,70.60
2019-03-23T13:08:17.626Z,69.40
2019-03-23T13:10:47.210Z,69.40
2019-03-23T13:13:16.590Z,69.60
2019-03-23T13:15:46.155Z,69.00
2019-03-23T13:18:15.803Z,68.90
2019-03-23T13:20:45.287Z,68.30
2019-03-23T13:23:14.972Z,68.40
2019-03-23T13:25:44.870Z,68.10
2019-03-23T13:28:14.508Z,68.30
2019-03-23T13:30:43.844Z,67.60
2019-03-23T13:33:13.635Z,67.70
2019-03-23T13:35:43.065Z,67.50
2019-03-23T13:38:12.529Z,68.00
2019-03-23T13:40:41.852Z,67.70
2019-03-23T13:43:11.528Z,67.10
2019-03-23T13:45:42.778Z,66.80
2019-03-23T13:48:14.040Z,67.00
2019-03-23T13:50:43.421Z,67.70
2019-03-23T13:53:12.752Z,67.70
2019-03-23T13:55:42.074Z,68.40
2019-03-23T13:58:15.001Z,68.90
2019-03-23T14:00:44.660Z,68.40
2019-03-23T14:03:14.146Z,68.20
2019-03-23T14:05:44.431Z,67.50
2019-03-23T14:08:13.896Z,66.90
2019-03-23T14:10:43.720Z,67.50
2019-03-23T14:13:13.052Z,65.50
2019-03-23T14:15:42.779Z,65.40
2019-03-23T14:18:12.207Z,65.50
2019-03-23T14:20:41.683Z,65.50
2019-03-23T14:23:11.300Z,65.00
2019-03-23T14:25:40.688Z,64.70
2019-03-23T14:28:10.107Z,64.20
2019-03-23T14:30:39.693Z,63.90
2019-03-23T14:33:09.282Z,63.70
2019-03-23T14:35:38.619Z,64.50
2019-03-23T14:38:07.935Z,64.40
2019-03-23T14:40:37.256Z,64.10
2019-03-23T14:43:06.814Z,63.80
2019-03-23T14:45:37.051Z,63.60
2019-03-23T14:48:06.832Z,63.90
2019-03-23T14:50:36.454Z,63.70
2019-03-23T14:53:06.485Z,62.90
2019-03-23T14:55:37.486Z,62.90
2019-03-23T14:58:07.435Z,63.30
2019-03-23T15:00:37.072Z,63.30
2019-03-23T15:03:06.502Z,63.70
2019-03-23T15:05:36.076Z,63.70
2019-03-23T15:08:05.742Z,64.30
2019-03-23T15:10:35.372Z,64.40
2019-03-23T15:13:05.074Z,64.40
2019-03-23T15:15:34.495Z,64.70
2019-03-23T15:18:03.807Z,64.90
2019-03-23T15:20:33.414Z,64.70
2019-03-23T15:23:02.763Z,64.70
2019-03-23T15:25:32.414Z,64.30
2019-03-23T15:28:02.079Z,64.00
2019-03-23T15:30:31.770Z,64.20
2019-03-23T15:33:01.726Z,64.00
2019-03-23T15:35:31.339Z,64.00
2019-03-23T15:38:00.940Z,63.50
2019-03-23T15:40:30.267Z,63.80
2019-03-23T15:42:59.844Z,63.40
2019-03-23T15:45:29.561Z,63.30
2019-03-23T15:47:58.871Z,63.70
2019-03-23T15:50:28.581Z,64.30
2019-03-23T15:52:57.886Z,63.70
2019-03-23T15:55:27.894Z,63.80
2019-03-23T15:57:57.399Z,63.70
2019-03-23T16:00:26.879Z,64.20
2019-03-23T16:02:56.511Z,64.70
2019-03-23T16:05:25.852Z,64.60
2019-03-23T16:07:55.520Z,64.70
2019-03-23T16:10:25.147Z,64.70
2019-03-23T16:12:55.156Z,64.70
2019-03-23T16:15:24.882Z,64.80
2019-03-23T16:17:54.396Z,64.90
2019-03-23T16:20:24.057Z,65.00
2019-03-23T16:22:53.667Z,65.10
2019-03-23T16:25:23.345Z,65.10
2019-03-23T16:27:52.742Z,65.10
2019-03-23T16:30:31.500Z,65.00
2019-03-23T16:33:01.151Z,64.70
2019-03-23T16:35:31.188Z,65.20
2019-03-23T16:38:00.785Z,64.60
2019-03-23T16:40:30.505Z,64.30
2019-03-23T16:43:00.568Z,64.30
2019-03-23T16:45:30.409Z,64.00
2019-03-23T16:48:00.978Z,64.30
2019-03-23T16:50:30.298Z,64.30
2019-03-23T16:52:59.602Z,64.70
2019-03-23T16:55:29.014Z,64.20
2019-03-23T16:57:58.728Z,64.50
2019-03-23T17:00:35.551Z,64.70
2019-03-23T17:03:05.636Z,64.80
2019-03-23T17:05:36.540Z,64.80
2019-03-23T17:08:07.137Z,64.70
2019-03-23T17:10:37.314Z,65.50
2019-03-23T17:13:06.714Z,65.60
2019-03-23T17:15:37.564Z,66.40
2019-03-23T17:18:07.015Z,67.30
2019-03-23T17:20:36.553Z,67.50
2019-03-23T17:23:05.907Z,67.90
2019-03-23T17:25:37.621Z,67.60
2019-03-23T17:28:07.000Z,67.80
2019-03-23T17:30:36.921Z,67.80
2019-03-23T17:33:06.333Z,67.70
2019-03-23T17:35:35.940Z,67.60
2019-03-23T17:38:05.680Z,67.90
2019-03-23T17:40:35.289Z,67.90
2019-03-23T17:43:06.206Z,67.60
2019-03-23T17:45:36.125Z,67.80
2019-03-23T17:48:05.615Z,67.70
2019-03-23T17:50:35.219Z,67.60
2019-03-23T17:53:04.828Z,67.50
2019-03-23T17:55:34.157Z,67.60
2019-03-23T17:58:03.969Z,67.50
2019-03-23T18:00:33.315Z,67.30
2019-03-23T18:03:02.647Z,67.30
2019-03-23T18:05:32.015Z,67.80
2019-03-23T18:08:01.809Z,68.20
2019-03-23T18:10:31.456Z,68.10
2019-03-23T18:13:01.062Z,68.30
2019-03-23T18:15:30.559Z,68.30
2019-03-23T18:17:59.886Z,68.40
2019-03-23T18:20:29.246Z,68.80
2019-03-23T18:22:59.245Z,69.10
2019-03-23T18:25:28.896Z,69.50
2019-03-23T18:27:58.401Z,69.60
2019-03-23T18:30:40.248Z,69.60
2019-03-23T18:33:09.748Z,69.50
2019-03-23T18:35:39.631Z,69.60
2019-03-23T18:38:09.341Z,70.00
2019-03-23T18:40:39.085Z,70.30
2019-03-23T18:43:08.755Z,70.40
2019-03-23T18:45:38.277Z,70.50
2019-03-23T18:48:08.065Z,70.80
2019-03-23T18:50:37.802Z,71.20
2019-03-23T18:53:07.167Z,71.50
2019-03-23T18:55:36.826Z,72.30
2019-03-23T18:58:06.523Z,73.50
2019-03-23T19:00:41.608Z,74.70
2019-03-23T19:03:12.260Z,75.60
2019-03-23T19:05:41.955Z,76.70
2019-03-23T19:08:12.001Z,77.10
2019-03-23T19:10:41.643Z,77.30
2019-03-23T19:13:11.018Z,77.60
2019-03-23T19:15:40.371Z,78.00
2019-03-23T19:18:10.175Z,78.60
2019-03-23T19:20:39.815Z,79.60
2019-03-23T19:23:09.203Z,80.20
2019-03-23T19:25:38.519Z,81.00
2019-03-23T19:28:08.241Z,81.20
2019-03-23T19:30:37.639Z,82.30
2019-03-23T19:33:07.129Z,82.90
2019-03-23T19:35:36.466Z,82.70
2019-03-23T19:38:06.293Z,82.00
2019-03-23T19:40:35.747Z,81.50
2019-03-23T19:43:05.275Z,81.00
2019-03-23T19:45:34.594Z,81.10
2019-03-23T19:48:04.020Z,81.00
2019-03-23T19:50:33.791Z,80.70
2019-03-23T19:53:03.552Z,80.40
2019-03-23T19:55:33.286Z,79.80
2019-03-23T19:58:02.691Z,79.80
2019-03-23T20:00:32.306Z,79.50
2019-03-23T20:03:01.728Z,79.50
2019-03-23T20:05:31.438Z,79.70
2019-03-23T20:08:00.838Z,79.50
2019-03-23T20:10:30.419Z,79.20
2019-03-23T20:12:59.871Z,79.00
2019-03-23T20:15:29.414Z,79.10
2019-03-23T20:17:58.867Z,78.90
2019-03-23T20:20:28.287Z,78.50
2019-03-23T20:22:57.699Z,77.90
2019-03-23T20:25:27.348Z,78.10
2019-03-23T20:27:56.959Z,78.10
2019-03-23T20:30:26.351Z,78.10
2019-03-23T20:32:55.934Z,78.20
2019-03-23T20:35:25.535Z,78.10
2019-03-23T20:37:55.796Z,78.30
2019-03-23T20:40:25.109Z,78.20
2019-03-23T20:42:54.435Z,78.20
2019-03-23T20:45:33.004Z,78.30
2019-03-23T20:48:03.653Z,78.40
2019-03-23T20:50:33.042Z,78.40
2019-03-23T20:53:03.364Z,78.70
2019-03-23T20:55:32.867Z,78.60
2019-03-23T20:58:02.611Z,79.30
2019-03-23T21:00:32.292Z,78.80
2019-03-23T21:03:02.033Z,78.70
2019-03-23T21:05:34.071Z,79.10
2019-03-23T21:08:02.488Z,78.30
2019-03-23T21:10:31.857Z,78.00
2019-03-23T21:13:01.204Z,77.90
2019-03-23T21:15:30.522Z,77.90
2019-03-23T21:18:00.671Z,77.50
2019-03-23T21:20:29.981Z,77.80
2019-03-23T21:22:59.992Z,77.20
2019-03-23T21:25:29.321Z,77.00
2019-03-23T21:27:58.706Z,76.60
2019-03-23T21:30:28.021Z,76.40
2019-03-23T21:32:57.341Z,76.10
2019-03-23T21:35:26.669Z,75.80
2019-03-23T21:37:56.399Z,76.10
2019-03-23T21:40:26.064Z,76.20
2019-03-23T21:42:55.379Z,76.30
2019-03-23T21:45:25.327Z,76.20
2019-03-23T21:47:54.648Z,76.10
2019-03-23T21:50:24.647Z,75.80
2019-03-23T21:52:53.964Z,76.00
2019-03-23T21:55:23.393Z,75.50
2019-03-23T21:57:52.771Z,75.20
2019-03-23T22:00:35.578Z,75.10
2019-03-23T22:03:05.183Z,74.70
2019-03-23T22:05:34.669Z,75.00
2019-03-23T22:08:04.494Z,74.80
2019-03-23T22:10:34.125Z,74.60
2019-03-23T22:13:03.704Z,75.30
2019-03-23T22:15:34.359Z,75.40
2019-03-23T22:18:04.056Z,75.70
2019-03-23T22:20:33.584Z,75.80
2019-03-23T22:23:03.023Z,76.10
2019-03-23T22:25:32.681Z,75.90
2019-03-23T22:28:02.089Z,75.60
2019-03-23T22:30:31.560Z,75.90
2019-03-23T22:33:01.093Z,76.40
2019-03-23T22:35:30.447Z,76.90
2019-03-23T22:37:59.757Z,77.00
2019-03-23T22:40:30.305Z,76.60
2019-03-23T22:42:59.728Z,77.10
2019-03-23T22:45:29.054Z,77.00
2019-03-23T22:47:58.945Z,76.60
2019-03-23T22:50:28.267Z,76.40
2019-03-23T22:52:58.143Z,76.00
2019-03-23T22:55:27.482Z,75.60
2019-03-23T22:57:56.786Z,75.20
2019-03-23T23:00:42.107Z,75.30
2019-03-23T23:03:12.506Z,75.60
2019-03-23T23:05:42.399Z,75.70
2019-03-23T23:08:11.808Z,75.40
2019-03-23T23:10:41.525Z,75.60
2019-03-23T23:13:10.863Z,75.80
2019-03-23T23:15:40.428Z,76.10
2019-03-23T23:18:10.085Z,75.90
2019-03-23T23:20:39.412Z,75.10
2019-03-23T23:23:09.096Z,74.80
2019-03-23T23:25:38.697Z,74.60
2019-03-23T23:28:08.075Z,73.70
2019-03-23T23:30:37.665Z,72.80
2019-03-23T23:33:07.047Z,72.60
2019-03-23T23:35:36.368Z,70.10
2019-03-23T23:38:05.750Z,70.90
2019-03-23T23:40:35.345Z,70.00
2019-03-23T23:43:04.719Z,68.00
2019-03-23T23:45:34.025Z,68.40
2019-03-23T23:48:03.326Z,69.30
2019-03-23T23:50:32.900Z,70.10
2019-03-23T23:53:02.494Z,70.60
2019-03-23T23:55:32.188Z,71.20
2019-03-23T23:58:01.849Z,70.60
